sensor_id;sensor_type;location;lat;lon;timestamp;pressure;altitude;pressure_sealevel;temperature;humidity
77079;BME280;66004;55.096;38.760;2023-10-13T02:27:00;98971.06;;;10.70;67.96
77079;BME280;66004;55.096;38.760;2023-10-13T02:29:34;98973.22;;;10.77;67.78
77079;BME280;66004;55.096;38.760;2023-10-13T02:32:04;98971.75;;;10.83;67.89
77079;BME280;66004;55.096;38.760;2023-10-13T02:34:38;98971.75;;;10.83;67.37
77079;BME280;66004;55.096;38.760;2023-10-13T02:37:10;98961.88;;;10.74;67.39
77079;BME280;66004;55.096;38.760;2023-10-13T02:39:36;98971.59;;;10.76;67.64
77079;BME280;66004;55.096;38.760;2023-10-13T02:42:02;98974.69;;;10.71;67.70
77079;BME280;66004;55.096;38.760;2023-10-13T02:44:33;98985.22;;;10.74;67.03
77079;BME280;66004;55.096;38.760;2023-10-13T02:46:58;98985.94;;;10.71;67.16
77079;BME280;66004;55.096;38.760;2023-10-13T02:49:25;98985.84;;;10.83;67.33
77079;BME280;66004;55.096;38.760;2023-10-13T02:51:54;98993.69;;;10.94;67.02
77079;BME280;66004;55.096;38.760;2023-10-13T02:54:25;98976.00;;;10.93;66.53
77079;BME280;66004;55.096;38.760;2023-10-13T02:56:56;98989.81;;;11.02;66.56
77079;BME280;66004;55.096;38.760;2023-10-13T02:59:26;98986.44;;;10.93;66.08
77079;BME280;66004;55.096;38.760;2023-10-13T03:02:05;98994.50;;;10.94;65.89
77079;BME280;66004;55.096;38.760;2023-10-13T03:04:45;98988.66;;;10.83;65.70
77079;BME280;66004;55.096;38.760;2023-10-13T03:07:11;99005.09;;;11.01;65.38
77079;BME280;66004;55.096;38.760;2023-10-13T03:09:41;99010.00;;;11.04;65.09
77079;BME280;66004;55.096;38.760;2023-10-13T03:12:15;99006.00;;;11.05;64.84
77079;BME280;66004;55.096;38.760;2023-10-13T03:14:40;98987.09;;;10.86;64.75
77079;BME280;66004;55.096;38.760;2023-10-13T03:17:07;99018.56;;;10.91;64.90
77079;BME280;66004;55.096;38.760;2023-10-13T03:19:43;99006.25;;;10.80;64.73
77079;BME280;66004;55.096;38.760;2023-10-13T03:22:15;99015.41;;;10.77;64.90
77079;BME280;66004;55.096;38.760;2023-10-13T03:24:44;99017.59;;;10.68;65.25
77079;BME280;66004;55.096;38.760;2023-10-13T03:27:12;99022.88;;;10.69;64.90
77079;BME280;66004;55.096;38.760;2023-10-13T03:29:41;99019.97;;;10.66;65.16
77079;BME280;66004;55.096;38.760;2023-10-13T03:32:11;99025.16;;;10.64;65.04
77079;BME280;66004;55.096;38.760;2023-10-13T03:34:47;99024.25;;;10.60;64.91
77079;BME280;66004;55.096;38.760;2023-10-13T03:37:39;99024.25;;;10.60;64.54
77079;BME280;66004;55.096;38.760;2023-10-13T03:40:09;99021.72;;;10.55;64.91
77079;BME280;66004;55.096;38.760;2023-10-13T03:42:54;99017.38;;;10.41;64.86
77079;BME280;66004;55.096;38.760;2023-10-13T03:45:29;99027.81;;;10.41;65.03
77079;BME280;66004;55.096;38.760;2023-10-13T03:48:02;99030.09;;;10.35;65.03
77079;BME280;66004;55.096;38.760;2023-10-13T03:50:34;99035.91;;;10.42;65.29
77079;BME280;66004;55.096;38.760;2023-10-13T03:53:01;99044.06;;;10.47;65.12
77079;BME280;66004;55.096;38.760;2023-10-13T03:55:27;99049.84;;;10.55;65.14
77079;BME280;66004;55.096;38.760;2023-10-13T03:57:56;99036.22;;;10.57;64.70
77079;BME280;66004;55.096;38.760;2023-10-13T04:00:24;99051.00;;;10.69;63.89
77079;BME280;66004;55.096;38.760;2023-10-13T04:02:52;99041.31;;;10.67;63.91
77079;BME280;66004;55.096;38.760;2023-10-13T04:05:33;99053.63;;;10.78;63.88
77079;BME280;66004;55.096;38.760;2023-10-13T04:08:19;99047.66;;;10.64;63.75
77079;BME280;66004;55.096;38.760;2023-10-13T04:10:56;99076.84;;;10.75;64.26
77079;BME280;66004;55.096;38.760;2023-10-13T04:13:22;99081.84;;;10.82;63.91
77079;BME280;66004;55.096;38.760;2023-10-13T04:16:07;99090.66;;;10.80;63.82
77079;BME280;66004;55.096;38.760;2023-10-13T04:18:56;99096.19;;;10.77;64.22
77079;BME280;66004;55.096;38.760;2023-10-13T04:21:25;99088.84;;;10.72;63.67
77079;BME280;66004;55.096;38.760;2023-10-13T04:24:21;99087.03;;;10.64;63.65
77079;BME280;66004;55.096;38.760;2023-10-13T04:27:25;99088.50;;;10.58;64.19
77079;BME280;66004;55.096;38.760;2023-10-13T04:30:10;99084.34;;;10.51;63.97
77079;BME280;66004;55.096;38.760;2023-10-13T04:32:36;99081.59;;;10.39;64.45
77079;BME280;66004;55.096;38.760;2023-10-13T04:35:11;99093.75;;;10.43;64.31
77079;BME280;66004;55.096;38.760;2023-10-13T04:37:40;99099.38;;;10.43;64.53
77079;BME280;66004;55.096;38.760;2023-10-13T04:40:18;99108.56;;;10.40;64.26
77079;BME280;66004;55.096;38.760;2023-10-13T04:42:51;99111.38;;;10.40;64.20
77079;BME280;66004;55.096;38.760;2023-10-13T04:45:17;99116.25;;;10.43;64.33
77079;BME280;66004;55.096;38.760;2023-10-13T04:47:59;99111.91;;;10.46;64.24
77079;BME280;66004;55.096;38.760;2023-10-13T04:50:59;99120.44;;;10.49;63.73
77079;BME280;66004;55.096;38.760;2023-10-13T04:53:45;99129.53;;;10.59;64.05
77079;BME280;66004;55.096;38.760;2023-10-13T04:56:29;99139.13;;;10.58;64.07
77079;BME280;66004;55.096;38.760;2023-10-13T04:59:06;99143.38;;;10.67;63.67
77079;BME280;66004;55.096;38.760;2023-10-13T05:02:01;99154.19;;;10.81;63.72
77079;BME280;66004;55.096;38.760;2023-10-13T05:04:45;99146.34;;;10.90;63.26
77079;BME280;66004;55.096;38.760;2023-10-13T05:07:41;99153.16;;;11.05;63.00
77079;BME280;66004;55.096;38.760;2023-10-13T05:10:25;99158.16;;;11.12;62.72
77079;BME280;66004;55.096;38.760;2023-10-13T05:13:09;99171.97;;;11.17;62.33
77079;BME280;66004;55.096;38.760;2023-10-13T05:15:54;99175.22;;;11.19;62.08
77079;BME280;66004;55.096;38.760;2023-10-13T05:18:38;99186.31;;;11.12;62.86
77079;BME280;66004;55.096;38.760;2023-10-13T05:21:22;99177.22;;;11.03;62.67
77079;BME280;66004;55.096;38.760;2023-10-13T05:24:07;99204.16;;;11.36;62.30
77079;BME280;66004;55.096;38.760;2023-10-13T05:26:52;99183.63;;;11.71;60.97
77079;BME280;66004;55.096;38.760;2023-10-13T05:29:46;99187.66;;;11.89;60.30
77079;BME280;66004;55.096;38.760;2023-10-13T05:32:31;99182.91;;;12.13;59.60
77079;BME280;66004;55.096;38.760;2023-10-13T05:35:16;99188.84;;;12.27;59.09
77079;BME280;66004;55.096;38.760;2023-10-13T05:38:00;99198.94;;;12.48;58.97
77079;BME280;66004;55.096;38.760;2023-10-13T05:41:00;99199.66;;;12.64;58.16
77079;BME280;66004;55.096;38.760;2023-10-13T05:43:44;99192.59;;;12.54;58.08
77079;BME280;66004;55.096;38.760;2023-10-13T05:46:28;99212.91;;;12.63;58.03
77079;BME280;66004;55.096;38.760;2023-10-13T05:49:07;99216.81;;;12.78;57.94
77079;BME280;66004;55.096;38.760;2023-10-13T05:51:42;99219.63;;;12.78;57.66
77079;BME280;66004;55.096;38.760;2023-10-13T05:54:08;99211.75;;;12.88;57.53
77079;BME280;66004;55.096;38.760;2023-10-13T05:56:54;99221.72;;;12.81;57.01
77079;BME280;66004;55.096;38.760;2023-10-13T05:59:39;99220.34;;;12.72;56.81
77079;BME280;66004;55.096;38.760;2023-10-13T06:02:23;99218.63;;;12.67;57.03
77079;BME280;66004;55.096;38.760;2023-10-13T06:05:10;99236.56;;;12.78;56.64
77079;BME280;66004;55.096;38.760;2023-10-13T06:07:55;99234.00;;;12.70;56.76
77079;BME280;66004;55.096;38.760;2023-10-13T06:10:40;99236.91;;;12.54;57.04
77079;BME280;66004;55.096;38.760;2023-10-13T06:13:25;99255.28;;;12.44;57.68
77079;BME280;66004;55.096;38.760;2023-10-13T06:16:11;99258.47;;;12.42;57.55
77079;BME280;66004;55.096;38.760;2023-10-13T06:18:56;99265.06;;;12.50;57.78
77079;BME280;66004;55.096;38.760;2023-10-13T06:21:40;99276.59;;;12.41;57.43
77079;BME280;66004;55.096;38.760;2023-10-13T06:24:25;99264.03;;;12.39;57.70
77079;BME280;66004;55.096;38.760;2023-10-13T06:27:09;99271.38;;;12.43;57.23
77079;BME280;66004;55.096;38.760;2023-10-13T06:29:53;99274.94;;;12.40;57.52
77079;BME280;66004;55.096;38.760;2023-10-13T06:32:22;99263.22;;;12.38;57.71
77079;BME280;66004;55.096;38.760;2023-10-13T06:34:55;99273.16;;;12.52;57.41
77079;BME280;66004;55.096;38.760;2023-10-13T06:37:26;99259.78;;;12.49;57.31
77079;BME280;66004;55.096;38.760;2023-10-13T06:39:57;99280.56;;;12.60;57.37
77079;BME280;66004;55.096;38.760;2023-10-13T06:42:27;99282.50;;;12.56;56.69
77079;BME280;66004;55.096;38.760;2023-10-13T06:44:53;99286.72;;;12.65;56.89
77079;BME280;66004;55.096;38.760;2023-10-13T06:47:20;99270.44;;;12.78;56.40
77079;BME280;66004;55.096;38.760;2023-10-13T06:49:46;99285.28;;;12.95;56.61
77079;BME280;66004;55.096;38.760;2023-10-13T06:52:13;99284.97;;;13.00;56.15
77079;BME280;66004;55.096;38.760;2023-10-13T06:54:41;99285.47;;;13.05;55.98
77079;BME280;66004;55.096;38.760;2023-10-13T06:57:08;99313.66;;;13.02;56.13
77079;BME280;66004;55.096;38.760;2023-10-13T06:59:42;99300.56;;;12.94;56.00
77079;BME280;66004;55.096;38.760;2023-10-13T07:02:08;99308.69;;;12.95;55.60
77079;BME280;66004;55.096;38.760;2023-10-13T07:04:48;99311.00;;;12.90;55.47
77079;BME280;66004;55.096;38.760;2023-10-13T07:07:13;99310.91;;;12.86;55.42
77079;BME280;66004;55.096;38.760;2023-10-13T07:09:41;99318.41;;;12.98;55.26
77079;BME280;66004;55.096;38.760;2023-10-13T07:12:27;99320.91;;;13.03;55.71
77079;BME280;66004;55.096;38.760;2023-10-13T07:14:53;99307.63;;;13.03;55.24
77079;BME280;66004;55.096;38.760;2023-10-13T07:17:28;99312.06;;;13.04;55.09
77079;BME280;66004;55.096;38.760;2023-10-13T07:19:58;99326.56;;;13.03;55.47
77079;BME280;66004;55.096;38.760;2023-10-13T07:22:40;99330.09;;;13.19;55.30
77079;BME280;66004;55.096;38.760;2023-10-13T07:25:05;99321.53;;;13.35;54.48
77079;BME280;66004;55.096;38.760;2023-10-13T07:27:34;99336.41;;;13.55;54.02
77079;BME280;66004;55.096;38.760;2023-10-13T07:30:01;99333.41;;;13.68;53.35
77079;BME280;66004;55.096;38.760;2023-10-13T07:32:42;99338.53;;;13.85;52.82
77079;BME280;66004;55.096;38.760;2023-10-13T07:35:18;99344.28;;;13.92;52.45
77079;BME280;66004;55.096;38.760;2023-10-13T07:37:46;99344.19;;;13.85;52.61
77079;BME280;66004;55.096;38.760;2023-10-13T07:40:14;99345.69;;;13.79;52.69
77079;BME280;66004;55.096;38.760;2023-10-13T07:42:56;99348.84;;;13.74;52.53
77079;BME280;66004;55.096;38.760;2023-10-13T07:45:36;99363.84;;;13.78;52.81
77079;BME280;66004;55.096;38.760;2023-10-13T07:51:07;99370.47;;;13.62;51.55
77079;BME280;66004;55.096;38.760;2023-10-13T07:53:39;99372.72;;;13.53;52.10
77079;BME280;66004;55.096;38.760;2023-10-13T07:56:11;99375.09;;;13.51;51.08
77079;BME280;66004;55.096;38.760;2023-10-13T07:58:40;99377.50;;;13.49;51.10
77079;BME280;66004;55.096;38.760;2023-10-13T08:01:24;99375.84;;;13.48;51.44
77079;BME280;66004;55.096;38.760;2023-10-13T08:03:50;99373.16;;;13.55;51.44
77079;BME280;66004;55.096;38.760;2023-10-13T08:06:29;99374.72;;;13.76;51.08
77079;BME280;66004;55.096;38.760;2023-10-13T08:08:55;99388.00;;;13.98;51.22
77079;BME280;66004;55.096;38.760;2023-10-13T08:11:33;99397.81;;;14.05;50.88
77079;BME280;66004;55.096;38.760;2023-10-13T08:14:06;99385.81;;;14.11;50.37
77079;BME280;66004;55.096;38.760;2023-10-13T08:16:41;99378.72;;;14.25;49.24
77079;BME280;66004;55.096;38.760;2023-10-13T08:19:27;99383.88;;;14.46;49.44
77079;BME280;66004;55.096;38.760;2023-10-13T08:21:56;99388.84;;;14.56;48.80
77079;BME280;66004;55.096;38.760;2023-10-13T08:24:40;99404.97;;;14.52;48.58
77079;BME280;66004;55.096;38.760;2023-10-13T08:27:07;99403.34;;;14.51;48.37
77079;BME280;66004;55.096;38.760;2023-10-13T08:29:51;99401.59;;;14.43;48.66
77079;BME280;66004;55.096;38.760;2023-10-13T08:32:19;99415.44;;;14.48;48.08
77079;BME280;66004;55.096;38.760;2023-10-13T08:34:54;99421.19;;;14.55;48.32
77079;BME280;66004;55.096;38.760;2023-10-13T08:37:21;99414.81;;;14.58;47.89
77079;BME280;66004;55.096;38.760;2023-10-13T08:39:51;99421.34;;;14.62;48.01
77079;BME280;66004;55.096;38.760;2023-10-13T08:42:36;99428.03;;;14.77;47.08
77079;BME280;66004;55.096;38.760;2023-10-13T08:45:15;99425.66;;;14.83;46.52
77079;BME280;66004;55.096;38.760;2023-10-13T08:47:50;99427.91;;;15.00;46.78
77079;BME280;66004;55.096;38.760;2023-10-13T08:50:36;99438.97;;;15.12;46.61
77079;BME280;66004;55.096;38.760;2023-10-13T08:53:21;99445.00;;;15.07;46.45
77079;BME280;66004;55.096;38.760;2023-10-13T08:56:00;99441.97;;;14.93;46.42
77079;BME280;66004;55.096;38.760;2023-10-13T08:58:44;99446.63;;;15.08;46.40
77079;BME280;66004;55.096;38.760;2023-10-13T09:01:23;99448.25;;;15.09;45.68
77079;BME280;66004;55.096;38.760;2023-10-13T09:04:12;99455.53;;;15.10;45.24
77079;BME280;66004;55.096;38.760;2023-10-13T09:14:52;99467.72;;;14.81;44.62
77079;BME280;66004;55.096;38.760;2023-10-13T09:17:25;99474.25;;;14.85;44.44
77079;BME280;66004;55.096;38.760;2023-10-13T09:20:06;99484.84;;;14.91;44.14
77079;BME280;66004;55.096;38.760;2023-10-13T09:22:51;99484.13;;;14.98;44.49
77079;BME280;66004;55.096;38.760;2023-10-13T09:25:29;99484.88;;;14.95;44.77
77079;BME280;66004;55.096;38.760;2023-10-13T09:30:45;99507.94;;;14.67;45.36
77079;BME280;66004;55.096;38.760;2023-10-13T09:33:11;99487.50;;;14.54;45.20
77079;BME280;66004;55.096;38.760;2023-10-13T09:35:46;99498.31;;;14.71;45.48
77079;BME280;66004;55.096;38.760;2023-10-13T09:38:18;99510.69;;;14.90;45.45
77079;BME280;66004;55.096;38.760;2023-10-13T09:40:44;99506.91;;;15.05;44.89
77079;BME280;66004;55.096;38.760;2023-10-13T09:43:19;99509.41;;;15.14;44.93
77079;BME280;66004;55.096;38.760;2023-10-13T09:45:47;99506.22;;;15.15;44.61
77079;BME280;66004;55.096;38.760;2023-10-13T09:48:46;99521.66;;;15.22;43.57
77079;BME280;66004;55.096;38.760;2023-10-13T09:51:14;99521.25;;;15.19;42.68
77079;BME280;66004;55.096;38.760;2023-10-13T09:53:52;99520.63;;;15.03;43.10
77079;BME280;66004;55.096;38.760;2023-10-13T09:56:29;99535.69;;;14.81;42.10
77079;BME280;66004;55.096;38.760;2023-10-13T09:59:19;99541.22;;;14.73;42.68
77079;BME280;66004;55.096;38.760;2023-10-13T10:01:48;99536.19;;;14.63;42.71
77079;BME280;66004;55.096;38.760;2023-10-13T10:04:18;99538.59;;;14.61;42.61
77079;BME280;66004;55.096;38.760;2023-10-13T10:06:58;99533.72;;;14.58;42.83
77079;BME280;66004;55.096;38.760;2023-10-13T10:09:32;99531.41;;;14.67;43.40
77079;BME280;66004;55.096;38.760;2023-10-13T10:15:20;99543.19;;;14.96;42.24
77079;BME280;66004;55.096;38.760;2023-10-13T10:17:56;99549.81;;;15.07;42.21
77079;BME280;66004;55.096;38.760;2023-10-13T10:20:33;99552.97;;;15.02;41.26
77079;BME280;66004;55.096;38.760;2023-10-13T10:23:27;99549.28;;;14.98;41.67
77079;BME280;66004;55.096;38.760;2023-10-13T10:26:14;99568.78;;;15.03;41.82
77079;BME280;66004;55.096;38.760;2023-10-13T10:28:42;99558.66;;;15.02;41.98
77079;BME280;66004;55.096;38.760;2023-10-13T10:31:09;99552.16;;;15.02;42.00
77079;BME280;66004;55.096;38.760;2023-10-13T10:33:38;99568.53;;;15.15;41.97
77079;BME280;66004;55.096;38.760;2023-10-13T10:36:04;99580.75;;;15.19;41.93
77079;BME280;66004;55.096;38.760;2023-10-13T10:38:31;99576.72;;;15.21;41.73
77079;BME280;66004;55.096;38.760;2023-10-13T10:41:04;99563.00;;;15.23;41.69
77079;BME280;66004;55.096;38.760;2023-10-13T10:46:28;99577.84;;;15.43;41.50
77079;BME280;66004;55.096;38.760;2023-10-13T10:48:57;99569.81;;;15.48;41.35
77079;BME280;66004;55.096;38.760;2023-10-13T10:51:27;99590.84;;;15.47;40.55
77079;BME280;66004;55.096;38.760;2023-10-13T10:54:00;99589.56;;;15.41;41.26
77079;BME280;66004;55.096;38.760;2023-10-13T10:56:37;99558.72;;;15.36;41.43
77079;BME280;66004;55.096;38.760;2023-10-13T10:59:05;99595.94;;;15.65;40.98
77079;BME280;66004;55.096;38.760;2023-10-13T11:01:32;99608.06;;;15.62;39.65
77079;BME280;66004;55.096;38.760;2023-10-13T11:04:05;99607.06;;;15.47;40.40
77079;BME280;66004;55.096;38.760;2023-10-13T11:06:45;99611.69;;;15.32;40.18
77079;BME280;66004;55.096;38.760;2023-10-13T11:09:11;99612.28;;;15.18;40.67
77079;BME280;66004;55.096;38.760;2023-10-13T11:11:52;99618.06;;;15.25;40.89
77079;BME280;66004;55.096;38.760;2023-10-13T11:14:22;99628.38;;;15.37;40.34
77079;BME280;66004;55.096;38.760;2023-10-13T11:16:49;99623.84;;;15.32;39.24
77079;BME280;66004;55.096;38.760;2023-10-13T11:19:38;99626.91;;;15.20;39.63
77079;BME280;66004;55.096;38.760;2023-10-13T11:22:18;99628.47;;;15.17;40.26
77079;BME280;66004;55.096;38.760;2023-10-13T11:25:07;99638.44;;;15.34;40.53
77079;BME280;66004;55.096;38.760;2023-10-13T11:27:40;99640.78;;;15.29;40.90
77079;BME280;66004;55.096;38.760;2023-10-13T11:30:20;99638.94;;;15.13;41.12
77079;BME280;66004;55.096;38.760;2023-10-13T11:33:19;99644.38;;;14.99;41.96
77079;BME280;66004;55.096;38.760;2023-10-13T11:35:54;99648.19;;;14.84;42.18
77079;BME280;66004;55.096;38.760;2023-10-13T11:38:31;99653.78;;;14.80;42.31
77079;BME280;66004;55.096;38.760;2023-10-13T11:41:19;99655.56;;;14.88;41.96
77079;BME280;66004;55.096;38.760;2023-10-13T11:43:47;99643.94;;;14.97;41.72
77079;BME280;66004;55.096;38.760;2023-10-13T11:46:17;99650.97;;;15.07;41.91
77079;BME280;66004;55.096;38.760;2023-10-13T11:49:04;99653.53;;;15.15;41.40
77079;BME280;66004;55.096;38.760;2023-10-13T11:51:39;99659.56;;;15.37;41.61
77079;BME280;66004;55.096;38.760;2023-10-13T11:54:09;99662.91;;;15.46;41.10
77079;BME280;66004;55.096;38.760;2023-10-13T11:56:35;99663.59;;;15.36;40.70
77079;BME280;66004;55.096;38.760;2023-10-13T11:59:03;99672.28;;;15.24;40.50
77079;BME280;66004;55.096;38.760;2023-10-13T12:01:31;99685.03;;;15.10;41.16
77079;BME280;66004;55.096;38.760;2023-10-13T12:04:16;99682.59;;;14.86;40.40
77079;BME280;66004;55.096;38.760;2023-10-13T12:07:00;99683.09;;;14.68;40.64
77079;BME280;66004;55.096;38.760;2023-10-13T12:09:44;99680.91;;;14.58;41.41
77079;BME280;66004;55.096;38.760;2023-10-13T12:12:23;99676.13;;;14.43;41.60
77079;BME280;66004;55.096;38.760;2023-10-13T12:14:49;99688.22;;;14.39;41.58
77079;BME280;66004;55.096;38.760;2023-10-13T12:17:18;99683.13;;;14.49;41.64
77079;BME280;66004;55.096;38.760;2023-10-13T12:19:52;99692.69;;;14.60;41.88
77079;BME280;66004;55.096;38.760;2023-10-13T12:22:18;99688.41;;;14.70;41.67
77079;BME280;66004;55.096;38.760;2023-10-13T12:24:52;99686.06;;;14.75;41.97
77079;BME280;66004;55.096;38.760;2023-10-13T12:27:20;99677.28;;;14.81;41.79
77079;BME280;66004;55.096;38.760;2023-10-13T12:29:50;99695.28;;;14.92;41.36
77079;BME280;66004;55.096;38.760;2023-10-13T12:32:17;99697.75;;;14.97;41.33
77079;BME280;66004;55.096;38.760;2023-10-13T12:34:49;99703.00;;;14.95;41.04
77079;BME280;66004;55.096;38.760;2023-10-13T12:37:30;99701.03;;;14.99;41.17
77079;BME280;66004;55.096;38.760;2023-10-13T12:40:02;99715.25;;;15.03;40.77
77079;BME280;66004;55.096;38.760;2023-10-13T12:42:47;99707.59;;;15.03;41.08
77079;BME280;66004;55.096;38.760;2023-10-13T12:45:30;99706.31;;;15.01;40.90
77079;BME280;66004;55.096;38.760;2023-10-13T12:48:14;99705.38;;;14.93;40.05
77079;BME280;66004;55.096;38.760;2023-10-13T12:51:01;99705.31;;;14.89;39.88
77079;BME280;66004;55.096;38.760;2023-10-13T12:53:52;99689.47;;;14.85;40.13
77079;BME280;66004;55.096;38.760;2023-10-13T12:56:18;99695.56;;;14.87;40.52
77079;BME280;66004;55.096;38.760;2023-10-13T12:58:54;99691.44;;;14.81;40.87
77079;BME280;66004;55.096;38.760;2023-10-13T13:01:22;99697.53;;;14.83;40.78
77079;BME280;66004;55.096;38.760;2023-10-13T13:03:52;99690.53;;;14.76;41.02
77079;BME280;66004;55.096;38.760;2023-10-13T13:06:23;99705.13;;;14.78;40.97
77079;BME280;66004;55.096;38.760;2023-10-13T13:11:17;99707.00;;;14.71;40.04
77079;BME280;66004;55.096;38.760;2023-10-13T13:13:42;99713.50;;;14.71;40.47
77079;BME280;66004;55.096;38.760;2023-10-13T13:16:08;99706.19;;;14.70;40.59
77079;BME280;66004;55.096;38.760;2023-10-13T13:18:34;99712.59;;;14.67;40.29
77079;BME280;66004;55.096;38.760;2023-10-13T13:21:00;99728.84;;;14.70;40.32
77079;BME280;66004;55.096;38.760;2023-10-13T13:23:27;99723.03;;;14.63;40.86
77079;BME280;66004;55.096;38.760;2023-10-13T13:25:53;99724.47;;;14.53;40.73
77079;BME280;66004;55.096;38.760;2023-10-13T13:28:21;99722.75;;;14.49;41.29
77079;BME280;66004;55.096;38.760;2023-10-13T13:30:49;99724.25;;;14.43;41.38
77079;BME280;66004;55.096;38.760;2023-10-13T13:33:16;99724.13;;;14.35;41.38
77079;BME280;66004;55.096;38.760;2023-10-13T13:35:48;99734.53;;;14.31;41.59
77079;BME280;66004;55.096;38.760;2023-10-13T13:38:14;99740.50;;;14.26;41.35
77079;BME280;66004;55.096;38.760;2023-10-13T13:40:47;99745.72;;;14.24;41.24
77079;BME280;66004;55.096;38.760;2023-10-13T13:43:20;99747.63;;;14.20;41.80
77079;BME280;66004;55.096;38.760;2023-10-13T13:46:09;99748.75;;;14.15;41.57
77079;BME280;66004;55.096;38.760;2023-10-13T13:48:36;99755.06;;;14.09;41.87
77079;BME280;66004;55.096;38.760;2023-10-13T13:51:05;99765.50;;;14.05;42.20
77079;BME280;66004;55.096;38.760;2023-10-13T13:53:38;99764.59;;;14.00;42.45
77079;BME280;66004;55.096;38.760;2023-10-13T13:56:08;99759.09;;;13.88;42.71
77079;BME280;66004;55.096;38.760;2023-10-13T13:58:33;99757.81;;;13.86;43.19
77079;BME280;66004;55.096;38.760;2023-10-13T14:01:02;99767.41;;;13.81;43.23
77079;BME280;66004;55.096;38.760;2023-10-13T14:03:44;99778.56;;;13.74;43.67
77079;BME280;66004;55.096;38.760;2023-10-13T14:06:13;99779.63;;;13.69;43.50
77079;BME280;66004;55.096;38.760;2023-10-13T14:08:46;99777.47;;;13.62;43.90
77079;BME280;66004;55.096;38.760;2023-10-13T14:11:17;99784.59;;;13.56;44.40
77079;BME280;66004;55.096;38.760;2023-10-13T14:14:10;99784.34;;;13.46;44.61
77079;BME280;66004;55.096;38.760;2023-10-13T14:16:46;99785.34;;;13.37;44.55
77079;BME280;66004;55.096;38.760;2023-10-13T14:19:16;99795.38;;;13.35;44.84
77079;BME280;66004;55.096;38.760;2023-10-13T14:22:00;99802.34;;;13.25;45.09
77079;BME280;66004;55.096;38.760;2023-10-13T14:24:33;99797.34;;;13.18;45.29
77079;BME280;66004;55.096;38.760;2023-10-13T14:27:03;99800.72;;;13.08;45.52
77079;BME280;66004;55.096;38.760;2023-10-13T14:29:43;99811.56;;;13.06;45.04
77079;BME280;66004;55.096;38.760;2023-10-13T14:32:09;99810.53;;;12.98;45.19
77079;BME280;66004;55.096;38.760;2023-10-13T14:34:45;99808.22;;;12.88;45.79
77079;BME280;66004;55.096;38.760;2023-10-13T14:37:12;99822.75;;;12.87;45.72
77079;BME280;66004;55.096;38.760;2023-10-13T14:39:39;99824.91;;;12.77;45.70
77079;BME280;66004;55.096;38.760;2023-10-13T14:42:04;99826.78;;;12.73;45.93
77079;BME280;66004;55.096;38.760;2023-10-13T14:44:34;99833.88;;;12.67;46.08
77079;BME280;66004;55.096;38.760;2023-10-13T14:47:00;99840.97;;;12.61;46.43
77079;BME280;66004;55.096;38.760;2023-10-13T14:49:27;99839.13;;;12.53;46.66
77079;BME280;66004;55.096;38.760;2023-10-13T14:51:52;99844.53;;;12.45;46.58
77079;BME280;66004;55.096;38.760;2023-10-13T14:54:20;99851.59;;;12.39;46.42
77079;BME280;66004;55.096;38.760;2023-10-13T14:57:03;99849.06;;;12.34;47.00
77079;BME280;66004;55.096;38.760;2023-10-13T14:59:29;99858.91;;;12.28;46.79
77079;BME280;66004;55.096;38.760;2023-10-13T15:02:04;99865.75;;;12.27;47.35
77079;BME280;66004;55.096;38.760;2023-10-13T15:04:30;99872.09;;;12.24;47.24
77079;BME280;66004;55.096;38.760;2023-10-13T15:07:02;99871.16;;;12.20;47.41
77079;BME280;66004;55.096;38.760;2023-10-13T15:09:29;99870.47;;;12.11;47.32
77079;BME280;66004;55.096;38.760;2023-10-13T15:11:54;99875.66;;;12.08;47.62
77079;BME280;66004;55.096;38.760;2023-10-13T15:14:20;99885.31;;;12.07;47.56
77079;BME280;66004;55.096;38.760;2023-10-13T15:16:46;99885.06;;;12.00;47.83
77079;BME280;66004;55.096;38.760;2023-10-13T15:19:12;99883.19;;;11.92;47.72
77079;BME280;66004;55.096;38.760;2023-10-13T15:21:37;99897.78;;;11.94;47.62
77079;BME280;66004;55.096;38.760;2023-10-13T15:24:06;99900.47;;;11.91;48.25
77079;BME280;66004;55.096;38.760;2023-10-13T15:26:51;99913.56;;;11.86;48.06
77079;BME280;66004;55.096;38.760;2023-10-13T15:29:22;99909.81;;;11.82;48.00
77079;BME280;66004;55.096;38.760;2023-10-13T15:31:51;99921.44;;;11.81;48.40
77079;BME280;66004;55.096;38.760;2023-10-13T15:34:23;99910.63;;;11.71;48.45
77079;BME280;66004;55.096;38.760;2023-10-13T15:36:51;99911.56;;;11.75;48.18
77079;BME280;66004;55.096;38.760;2023-10-13T15:39:18;99929.22;;;11.72;48.72
77079;BME280;66004;55.096;38.760;2023-10-13T15:41:49;99918.84;;;11.63;48.68
77079;BME280;66004;55.096;38.760;2023-10-13T15:44:19;99920.03;;;11.62;48.59
77079;BME280;66004;55.096;38.760;2023-10-13T15:46:46;99927.16;;;11.60;48.46
77079;BME280;66004;55.096;38.760;2023-10-13T15:49:15;99921.06;;;11.45;49.03
77079;BME280;66004;55.096;38.760;2023-10-13T15:51:41;99935.97;;;11.46;49.24
77079;BME280;66004;55.096;38.760;2023-10-13T15:54:07;99927.03;;;11.44;49.25
77079;BME280;66004;55.096;38.760;2023-10-13T15:56:44;99911.63;;;11.29;49.52
77079;BME280;66004;55.096;38.760;2023-10-13T15:59:10;99921.38;;;11.32;49.70
77079;BME280;66004;55.096;38.760;2023-10-13T16:01:36;99912.91;;;11.19;49.71
77079;BME280;66004;55.096;38.760;2023-10-13T16:04:04;99930.06;;;11.26;49.88
77079;BME280;66004;55.096;38.760;2023-10-13T16:06:40;99927.47;;;11.21;50.14
77079;BME280;66004;55.096;38.760;2023-10-13T16:09:06;99919.09;;;11.13;49.87
77079;BME280;66004;55.096;38.760;2023-10-13T16:11:43;99936.78;;;11.13;50.15
77079;BME280;66004;55.096;38.760;2023-10-13T16:14:13;99928.13;;;11.06;50.29
77079;BME280;66004;55.096;38.760;2023-10-13T16:16:47;99926.19;;;10.98;50.41